Nearby METAR Reports


NZWN - Wellington Intl, New Zealand
Distance from station: SSW 357km
Updated: 22/08/2017 15:30
Clear
Clear
 Wind from SSE
Wind: SSE 20 km/h
Temperature: 10°C
Wind Chill: 7°C
Dew Point: 4°C
Humidity: 67%
Barometer: 1020 hPa
Clouds: Clear
Visibility: 10 km
2017/08/22 03:30 NZWN 220330Z AUTO 15011KT 9999 NCD 10/04 Q1020 NOSIG
NZAA - Auckland Intl Ar, New Zealand
Distance from station: NW 162km
Updated: 22/08/2017 15:30
Clear
Clear
 Wind from S
Wind: S 17 km/h
Temperature: 15°C
Dew Point: 8°C
Humidity: 63%
Barometer: 1017 hPa
Clouds: Clear
Visibility: 10 km
2017/08/22 03:30 NZAA 220330Z AUTO 17009KT 9999 NCD 15/08 Q1017 NOSIG
 
NZCH - Christchurch Int, New Zealand
Distance from station: SSW 647km
Updated: 22/08/2017 15:30
Clear
Clear
 Wind from NNE
Wind: NNE 7 km/h
Temperature: 13°C
Dew Point: -1°C
Humidity: 38%
Barometer: 1019 hPa
Clouds: Clear
Visibility: 10 km
2017/08/22 03:30 NZCH 220330Z AUTO 03004KT 360V070 9999 NCD 13/M01 Q1019 NOSIG
YSNF - Norfolk Island A, Australia
Distance from station: NW 1258km
Updated: 22/08/2017 15:00
Mostly Cloudy
Mostly Cloudy
 Wind from S
Wind: S 11 km/h
Temperature: 17°C
Dew Point: 10°C
Humidity: 64%
Barometer: 1020 hPa
Clouds: Mostly Cloudy
Visibility: 10 km
Cloud details: Few Clouds 914 m
Mostly Cloudy 1372 m
Mostly Cloudy 5791 m
2017/08/22 03:00 YSNF 220300Z 19006KT 150V210 9999 FEW030 BKN045 BKN190 17/10 Q1020